CheckWX is a tool to help pilots better visualize weather data.  It is not intended as a substitute for an official pre-flight weather briefing.

17:37:09 UTC

KWRB TAF
Robins AFB Airport
Warner Robins, Georgia, USA
TAF KWRB 241300Z 2413/2519 VRB03KT 9999 SKC QNH3026INS BECMG 2417/2418 17010KT 9999 FEW250 QNH3015INS BECMG 2502/2503 18003KT 8000 BR SCT050 QNH3005INS BECMG 2514/2515 22010G15KT 9999 NSW SCT030 BKN050 QNH3000INS TX23/2421Z TN07/2413Z

Mar-24@
13:00 UTC

Mar-24 @ 13:00 UTC

Mar-24@
17:00 UTC

Mar-24 @ 17:00 UTC

TAF KWRB 241300Z 2413/2519 VRB03KT 9999 SKC QNH3026INS

Expired

Wind
  • Variable at 3 KTS
Cloud Levels
  • Clear skies

Mar-24@
17:00 UTC

Mar-24 @ 17:00 UTC

Mar-25@
02:00 UTC

Mar-25 @ 02:00 UTC

BECMG 2417/2418 17010KT 9999 FEW250 QNH3015INS

Becoming

Becoming Conditions expected by Sun, Mar 24, 2019 @ 18:00 UTC

Wind
  • 170° at 10 KTS
Cloud Levels
  • Few at 25,000' AGL

Mar-25@
02:00 UTC

Mar-25 @ 02:00 UTC

Mar-25@
14:00 UTC

Mar-25 @ 14:00 UTC

BECMG 2502/2503 18003KT 8000 BR SCT050 QNH3005INS

Becoming

Becoming Conditions expected by Mon, Mar 25, 2019 @ 03:00 UTC

Wind
  • 180° at 3 KTS
Conditions
Mist
Cloud Levels
  • Scattered at 5,000' AGL

Mar-25@
14:00 UTC

Mar-25 @ 14:00 UTC

Mar-25@
19:00 UTC

Mar-25 @ 19:00 UTC

BECMG 2514/2515 22010G15KT 9999 NSW SCT030 BKN050 QNH3000INS TX23/2421Z TN07/2413Z

Becoming

Becoming Conditions expected by Mon, Mar 25, 2019 @ 15:00 UTC

Wind
  • 220° at 10 KTS
  • {Gusting to 15 KTS
Conditions
No significant weather
Cloud Levels
  • Scattered at 3,000' AGL
  • Broken at 5,000' AGL